Time;durP1;ratioP1;P1;durP2;ratioP2;P2;SDS_P1;SDS_P2;PMS_P1;PMS_P2;Temp;Humidity;BMP_temperature;BMP_pressure;BME280_temperature;BME280_humidity;BME280_pressure;Samples;Min_cycle;Max_cycle;Signal;HPM_P1;HPM_P2
2022/11/29 00:00:48;;;;;;;199.18;28.20;;;8.20;99.90;;;;;;6303090;22;20088;-88
2022/11/29 00:03:14;;;;;;;106.75;22.13;;;8.20;99.90;;;;;;6302295;22;20464;-88
2022/11/29 00:05:39;;;;;;;283.88;32.10;;;8.20;99.90;;;;;;6303346;22;20050;-88
2022/11/29 00:08:05;;;;;;;116.93;23.75;;;8.20;99.90;;;;;;6275452;22;20018;-88
2022/11/29 00:10:30;;;;;;;245.10;30.23;;;8.30;99.90;;;;;;6303090;22;20004;-88
2022/11/29 00:12:56;;;;;;;119.88;22.40;;;8.20;99.90;;;;;;6302834;22;20042;-88
2022/11/29 00:15:22;;;;;;;210.23;29.00;;;8.20;99.90;;;;;;6303082;22;20096;-88
2022/11/29 00:17:47;;;;;;;210.63;27.60;;;8.20;99.90;;;;;;6302988;22;20460;-88
2022/11/29 00:20:13;;;;;;;246.00;30.92;;;8.20;99.90;;;;;;6302230;22;20077;-88
2022/11/29 00:22:39;;;;;;;212.73;30.13;;;8.20;99.90;;;;;;6302340;22;20042;-88
2022/11/29 00:25:05;;;;;;;180.15;26.02;;;8.20;99.90;;;;;;6303367;22;20035;-88
2022/11/29 00:27:31;;;;;;;293.17;32.20;;;8.20;99.90;;;;;;6303166;22;20064;-87
2022/11/29 00:29:57;;;;;;;227.70;26.92;;;8.20;99.90;;;;;;6275225;22;20015;-88
2022/11/29 00:32:22;;;;;;;177.23;25.98;;;8.20;99.90;;;;;;6302397;22;20015;-88
2022/11/29 00:34:48;;;;;;;150.18;23.90;;;8.20;99.90;;;;;;6303688;22;20437;-88
2022/11/29 00:37:13;;;;;;;173.35;25.42;;;8.20;99.90;;;;;;6302554;22;20505;-87
2022/11/29 00:39:40;;;;;;;213.07;26.38;;;8.20;99.90;;;;;;6275579;22;20015;-88
2022/11/29 00:42:05;;;;;;;154.52;24.75;;;8.20;99.90;;;;;;6303180;22;20015;-88
2022/11/29 00:44:31;;;;;;;244.80;29.77;;;8.20;99.90;;;;;;6303877;22;20069;-88
2022/11/29 00:46:56;;;;;;;259.55;29.00;;;8.20;99.90;;;;;;6302531;22;20422;-88
2022/11/29 00:49:22;;;;;;;215.30;26.83;;;8.20;99.90;;;;;;6303132;22;20086;-88
2022/11/29 00:51:47;;;;;;;178.68;25.63;;;8.20;99.90;;;;;;6303549;22;20011;-88
2022/11/29 00:54:13;;;;;;;263.10;29.70;;;8.20;99.90;;;;;;6275922;22;20397;-87
2022/11/29 00:56:39;;;;;;;203.43;27.08;;;8.20;99.90;;;;;;6303604;22;20026;-88
2022/11/29 00:59:04;;;;;;;146.73;24.00;;;8.20;99.90;;;;;;6303635;22;20069;-88
2022/11/29 01:01:30;;;;;;;122.25;22.23;;;8.10;99.90;;;;;;6302750;22;20113;-88
2022/11/29 01:03:55;;;;;;;223.40;26.23;;;8.10;99.90;;;;;;6301397;22;20330;-88
2022/11/29 01:06:21;;;;;;;189.10;27.70;;;8.20;99.90;;;;;;6275748;22;20082;-87
2022/11/29 01:08:48;;;;;;;173.68;25.90;;;8.10;99.90;;;;;;6275790;22;20022;-88
2022/11/29 01:11:26;;;;;;;273.98;29.13;;;8.20;99.90;;;;;;6276354;22;20022;-88
2022/11/29 01:14:00;;;;;;;130.48;22.90;;;8.20;99.90;;;;;;6303955;22;20136;-87
2022/11/29 01:16:26;;;;;;;;;;;8.20;99.90;;;;;;6303509;22;20011;-88
2022/11/29 01:18:52;;;;;;;256.35;28.50;;;8.10;99.90;;;;;;6275529;22;19942;-88
2022/11/29 01:21:20;;;;;;;315.50;32.95;;;8.10;99.90;;;;;;6304122;22;20437;-87
2022/11/29 01:23:48;;;;;;;95.13;24.23;;;8.10;99.90;;;;;;6305573;22;20019;-88
2022/11/29 01:26:19;;;;;;;132.98;25.98;;;8.10;99.90;;;;;;6305114;22;20011;-88
2022/11/29 01:28:47;;;;;;;115.38;20.92;;;8.10;99.90;;;;;;6304604;22;20086;-88
2022/11/29 01:31:19;;;;;;;118.75;24.60;;;8.10;99.90;;;;;;6277019;22;20076;-88
2022/11/29 01:33:45;;;;;;;115.18;24.33;;;8.10;99.90;;;;;;6304569;22;20015;-88
2022/11/29 01:36:12;;;;;;;147.05;26.15;;;8.10;99.90;;;;;;6304885;22;20011;-88
2022/11/29 01:38:38;;;;;;;127.65;24.75;;;8.10;99.90;;;;;;6304724;22;20022;-88
2022/11/29 01:41:07;;;;;;;118.70;24.60;;;8.10;99.90;;;;;;6303837;22;20015;-88
2022/11/29 01:43:53;;;;;;;154.95;26.38;;;8.10;99.90;;;;;;6304970;22;20015;-88
2022/11/29 01:46:18;;;;;;;123.78;23.48;;;8.10;99.90;;;;;;6276498;22;20022;-87
2022/11/29 01:48:44;;;;;;;84.03;18.83;;;8.10;99.90;;;;;;6304249;22;20003;-88
2022/11/29 01:51:09;;;;;;;93.20;21.33;;;8.10;99.90;;;;;;6305228;22;20018;-87
2022/11/29 01:53:35;;;;;;;119.13;22.08;;;8.10;99.90;;;;;;6304872;22;20022;-87
2022/11/29 01:56:04;;;;;;;89.45;21.42;;;8.10;99.90;;;;;;6304363;22;20007;-87
2022/11/29 01:58:31;;;;;;;124.03;24.17;;;8.10;99.90;;;;;;6276327;22;20015;-88
2022/11/29 02:00:59;;;;;;;115.95;23.75;;;8.50;99.90;;;;;;6304652;22;20027;-87
2022/11/29 02:03:25;;;;;;;110.63;21.90;;;8.10;99.90;;;;;;6304655;22;20405;-88
2022/11/29 02:05:51;;;;;;;149.10;25.80;;;8.10;99.90;;;;;;6304679;22;20015;-88
2022/11/29 02:08:28;;;;;;;90.47;21.45;;;8.40;99.90;;;;;;6304751;22;20022;-88
2022/11/29 02:11:25;;;;;;;109.13;22.35;;;8.10;99.90;;;;;;6305001;22;20040;-87
2022/11/29 02:14:17;;;;;;;170.13;27.15;;;8.10;99.90;;;;;;6304363;22;20055;-88
2022/11/29 02:17:15;;;;;;;127.82;26.13;;;8.10;99.90;;;;;;6277248;22;20092;-87
2022/11/29 02:19:56;;;;;;;126.03;26.13;;;8.10;99.90;;;;;;6284217;22;20053;-88
2022/11/29 02:22:36;;;;;;;82.20;19.67;;;8.10;99.90;;;;;;6304779;22;20699;-87
2022/11/29 02:25:49;;;;;;;84.68;21.98;;;8.00;99.90;;;;;;6305239;22;20072;-88
2022/11/29 02:28:52;;;;;;;169.38;25.80;;;8.10;99.90;;;;;;6208827;23;20016;-88
2022/11/29 02:31:21;;;;;;;141.48;23.75;;;8.00;99.90;;;;;;6209745;23;20013;-88
2022/11/29 02:34:18;;;;;;;147.45;24.60;;;8.00;99.90;;;;;;6208918;23;20051;-88
2022/11/29 02:37:01;;;;;;;265.30;30.73;;;8.00;99.90;;;;;;6209346;23;20086;-88
2022/11/29 02:39:44;;;;;;;76.70;18.50;;;8.70;99.90;;;;;;6209631;23;20027;-88
2022/11/29 02:42:50;;;;;;;97.15;20.45;;;8.00;99.90;;;;;;6208511;23;20569;-88
2022/11/29 02:46:01;;;;;;;153.45;26.67;;;8.00;99.90;;;;;;6208958;23;20016;-88
2022/11/29 02:49:03;;;;;;;73.53;19.83;;;8.00;99.90;;;;;;6151549;23;20044;-88
2022/11/29 02:51:54;;;;;;;104.68;20.13;;;7.90;99.90;;;;;;6209349;23;20039;-87
2022/11/29 02:54:25;;;;;;;76.93;22.17;;;7.90;99.90;;;;;;6209663;23;20016;-87
2022/11/29 02:57:13;;;;;;;86.63;19.50;;;7.90;99.90;;;;;;6183631;23;20092;-87
2022/11/29 03:00:10;;;;;;;158.75;23.00;;;8.00;99.90;;;;;;6209359;23;20016;-87
2022/11/29 03:02:50;;;;;;;69.82;19.80;;;7.90;99.90;;;;;;6276395;22;20071;-88
2022/11/29 03:05:19;;;;;;;174.50;23.40;;;7.90;99.90;;;;;;6304217;22;20086;-88
2022/11/29 03:08:23;;;;;;;127.25;23.20;;;7.90;99.90;;;;;;6304117;22;20446;-88
2022/11/29 03:11:13;;;;;;;152.05;22.33;;;7.90;99.90;;;;;;6303585;22;20019;-87
2022/11/29 03:13:58;;;;;;;156.95;24.88;;;7.90;99.90;;;;;;6303214;22;20047;-87
2022/11/29 03:16:38;;;;;;;89.78;19.42;;;7.90;99.90;;;;;;6303432;22;20019;-88
2022/11/29 03:19:12;;;;;;;145.30;22.52;;;7.90;99.90;;;;;;6303203;22;20366;-88
2022/11/29 03:21:58;;;;;;;111.70;19.48;;;7.90;99.90;;;;;;6303009;22;20051;-88
2022/11/29 03:24:43;;;;;;;160.20;21.80;;;7.80;99.90;;;;;;6304236;22;20007;-88
2022/11/29 03:27:11;;;;;;;;;;;7.80;99.90;;;;;;6303510;22;20011;-88
2022/11/29 03:29:53;;;;;;;140.63;20.98;;;7.80;99.90;;;;;;6304362;22;19911;-87
2022/11/29 03:32:37;;;;;;;73.90;17.80;;;7.80;99.90;;;;;;6276376;22;20026;-88
2022/11/29 03:35:21;;;;;;;208.07;26.10;;;7.80;99.90;;;;;;6276193;22;20518;-88
2022/11/29 03:38:04;;;;;;;124.38;21.42;;;7.80;99.90;;;;;;6249783;22;20015;-88
2022/11/29 03:40:58;;;;;;;149.50;21.50;;;7.80;99.90;;;;;;6303292;22;20432;-87
2022/11/29 03:43:35;;;;;;;220.60;25.45;;;7.70;99.90;;;;;;6303487;22;20015;-88
2022/11/29 03:46:10;;;;;;;110.70;18.15;;;7.70;99.90;;;;;;6275410;22;20094;-88
2022/11/29 03:48:45;;;;;;;140.90;20.42;;;7.70;99.90;;;;;;6303961;22;20086;-87
2022/11/29 03:51:22;;;;;;;129.45;20.20;;;7.70;99.90;;;;;;6250605;22;20022;-87
2022/11/29 03:53:56;;;;;;;156.82;25.45;;;7.70;99.90;;;;;;6304175;22;20015;-88
2022/11/29 03:56:37;;;;;;;174.50;25.00;;;8.30;99.90;;;;;;6303387;22;20011;-88
2022/11/29 03:59:24;;;;;;;75.30;19.58;;;7.70;99.90;;;;;;6303523;22;20093;-88
2022/11/29 04:02:04;;;;;;;148.68;23.75;;;7.60;99.90;;;;;;6276122;22;20068;-87
2022/11/29 04:05:12;;;;;;;74.60;16.77;;;7.60;99.90;;;;;;6303801;22;20011;-88
2022/11/29 04:08:00;;;;;;;118.65;19.98;;;7.60;99.90;;;;;;6303436;22;20015;-87
2022/11/29 04:10:56;;;;;;;134.13;20.05;;;7.60;99.90;;;;;;6275066;22;20095;-88
2022/11/29 04:13:34;;;;;;;118.30;21.73;;;7.60;99.90;;;;;;6303044;22;20015;-87
2022/11/29 04:16:21;;;;;;;89.78;17.65;;;7.60;99.90;;;;;;6274975;22;20022;-88
2022/11/29 04:18:55;;;;;;;98.00;17.48;;;7.60;99.90;;;;;;6303714;22;20011;-88
2022/11/29 04:21:41;;;;;;;80.85;18.35;;;7.90;99.90;;;;;;6303538;22;20015;-88
2022/11/29 04:24:24;;;;;;;80.60;17.65;;;7.60;99.90;;;;;;6303275;22;20038;-88
2022/11/29 04:27:27;;;;;;;145.13;21.60;;;7.60;99.90;;;;;;6303816;22;20011;-88
2022/11/29 04:30:35;;;;;;;71.22;17.40;;;7.60;99.90;;;;;;6275733;22;20438;-87
2022/11/29 04:33:27;;;;;;;93.50;19.20;;;7.60;99.90;;;;;;6290764;22;20081;-88
2022/11/29 04:36:12;;;;;;;98.57;19.08;;;7.60;99.90;;;;;;6303626;22;20015;-88
2022/11/29 04:38:43;;;;;;;58.55;16.58;;;7.50;99.90;;;;;;6302448;22;20081;-88
2022/11/29 04:41:44;;;;;;;98.10;19.75;;;7.50;99.90;;;;;;6276403;22;20015;-88
2022/11/29 04:44:32;;;;;;;51.50;16.48;;;7.50;99.90;;;;;;6302721;22;20094;-88
2022/11/29 04:47:22;;;;;;;97.35;17.38;;;7.50;99.90;;;;;;6301946;22;20338;-88
2022/11/29 04:50:13;;;;;;;86.53;16.88;;;7.50;99.90;;;;;;6303008;22;20090;-88
2022/11/29 04:53:05;;;;;;;134.30;20.80;;;7.50;99.90;;;;;;6302387;22;20026;-88
2022/11/29 04:56:14;;;;;;;102.72;18.83;;;7.50;99.90;;;;;;6302931;22;20014;-88
2022/11/29 04:59:02;;;;;;;125.75;19.60;;;7.50;99.90;;;;;;6207857;23;20016;-88
2022/11/29 05:01:57;;;;;;;83.85;17.30;;;7.50;99.90;;;;;;6207812;23;20064;-88
2022/11/29 05:04:36;;;;;;;61.97;16.20;;;7.40;99.90;;;;;;6182936;23;20024;-88
2022/11/29 05:07:17;;;;;;;100.82;18.27;;;7.50;99.90;;;;;;6207450;23;20121;-87
2022/11/29 05:09:45;;;;;;;103.10;18.20;;;7.40;99.90;;;;;;6208330;23;20017;-89
2022/11/29 05:12:26;;;;;;;57.05;14.65;;;7.40;99.90;;;;;;6208420;23;20039;-88
2022/11/29 05:15:20;;;;;;;54.50;13.23;;;7.40;99.90;;;;;;6207351;23;20012;-88
2022/11/29 05:17:58;;;;;;;115.18;19.23;;;7.40;99.90;;;;;;6207461;23;20068;-87
2022/11/29 05:20:56;;;;;;;43.92;13.02;;;7.40;99.90;;;;;;6207794;23;20091;-88
2022/11/29 05:23:30;;;;;;;52.58;14.93;;;7.40;99.90;;;;;;6207211;23;20021;-88
2022/11/29 05:26:17;;;;;;;60.00;14.65;;;7.40;99.90;;;;;;6207704;23;20016;-88
2022/11/29 05:29:09;;;;;;;58.03;14.07;;;7.40;99.90;;;;;;6230408;22;20015;-88
2022/11/29 05:31:55;;;;;;;34.20;12.18;;;7.30;99.90;;;;;;6303123;22;20011;-88
2022/11/29 05:34:49;;;;;;;46.55;12.60;;;7.30;99.90;;;;;;6303177;22;20082;-88
2022/11/29 05:37:42;;;;;;;45.53;12.57;;;7.30;99.90;;;;;;6300471;22;20007;-88
2022/11/29 05:40:44;;;;;;;50.25;14.07;;;7.30;99.90;;;;;;6303006;22;20011;-88
2022/11/29 05:43:28;;;;;;;68.70;15.38;;;7.30;99.90;;;;;;6303595;22;20125;-87
2022/11/29 05:46:08;;;;;;;60.80;13.70;;;7.30;99.90;;;;;;6302529;22;20060;-88
2022/11/29 05:48:44;;;;;;;25.83;10.70;;;7.20;99.90;;;;;;6274641;22;20015;-87
2022/11/29 05:51:22;;;;;;;36.22;12.40;;;7.20;99.90;;;;;;6300387;22;20011;-88
2022/11/29 05:54:32;;;;;;;22.50;9.85;;;7.20;99.90;;;;;;6274523;22;20030;-88
2022/11/29 05:57:02;;;;;;;25.63;11.43;;;7.20;99.90;;;;;;6279046;22;20019;-86
2022/11/29 05:59:29;;;;;;;29.15;13.13;;;7.20;99.90;;;;;;6302733;22;20026;-88
2022/11/29 06:02:10;;;;;;;49.25;13.20;;;7.20;99.90;;;;;;6302694;22;20074;-87
2022/11/29 06:04:44;;;;;;;37.75;11.73;;;7.20;99.90;;;;;;6303351;22;20053;-88
2022/11/29 06:07:25;;;;;;;29.98;10.60;;;7.10;99.90;;;;;;6303893;22;20019;-88
2022/11/29 06:10:02;;;;;;;30.17;10.25;;;7.10;99.90;;;;;;6304548;22;20018;-87
2022/11/29 06:12:34;;;;;;;39.97;11.38;;;7.10;99.90;;;;;;6305691;22;20180;-87
2022/11/29 06:15:16;;;;;;;40.55;11.25;;;7.10;99.90;;;;;;6305690;22;20011;-88
2022/11/29 06:18:20;;;;;;;41.10;11.63;;;7.10;99.90;;;;;;6278881;22;20011;-87
2022/11/29 06:21:22;;;;;;;27.92;9.70;;;7.10;99.90;;;;;;6304795;22;20019;-86
2022/11/29 06:24:07;;;;;;;28.77;10.65;;;6.60;99.90;;;;;;6299687;22;20050;-87
2022/11/29 06:27:05;;;;;;;42.75;12.10;;;7.20;99.90;;;;;;6306095;22;20015;-87
2022/11/29 06:29:50;;;;;;;60.72;12.40;;;7.00;99.90;;;;;;6305637;22;20015;-87
2022/11/29 06:32:53;;;;;;;33.83;11.60;;;7.00;99.90;;;;;;6305734;22;20015;-87
2022/11/29 06:35:44;;;;;;;33.55;10.80;;;7.00;99.90;;;;;;6306227;22;20011;-87
2022/11/29 06:38:23;;;;;;;36.38;10.95;;;7.00;99.90;;;;;;6253499;22;20058;-87
2022/11/29 06:40:50;;;;;;;37.33;12.90;;;7.40;99.90;;;;;;6279498;22;20019;-87
2022/11/29 06:43:16;;;;;;;32.58;10.98;;;7.00;99.90;;;;;;6306673;22;20085;-87
2022/11/29 06:45:49;;;;;;;47.33;12.18;;;7.00;99.90;;;;;;6306176;22;20008;-87
2022/11/29 06:48:24;;;;;;;65.05;13.43;;;7.00;99.90;;;;;;6278662;22;20007;-87
2022/11/29 06:51:07;;;;;;;67.40;12.50;;;7.00;99.90;;;;;;6306555;22;20084;-88
2022/11/29 06:53:43;;;;;;;31.83;11.82;;;7.00;99.90;;;;;;6306130;22;20094;-89
2022/11/29 06:56:27;;;;;;;26.15;10.07;;;7.00;99.90;;;;;;6307262;22;20057;-88
2022/11/29 06:59:04;;;;;;;45.30;12.68;;;7.00;99.90;;;;;;6307607;22;20014;-88
2022/11/29 07:01:30;;;;;;;28.83;12.10;;;7.00;99.90;;;;;;6279417;22;20011;-87
2022/11/29 07:04:05;;;;;;;29.38;11.35;;;7.00;99.90;;;;;;6306508;22;20325;-87
2022/11/29 07:06:33;;;;;;;33.45;11.95;;;7.00;99.90;;;;;;6280522;22;20019;-90
2022/11/29 07:09:02;;;;;;;31.00;12.90;;;7.00;99.90;;;;;;6282124;22;20081;-88
2022/11/29 07:11:28;;;;;;;41.03;13.20;;;7.00;99.90;;;;;;6282208;22;20025;-90
2022/11/29 07:13:54;;;;;;;39.28;13.95;;;7.00;99.90;;;;;;6308014;22;20132;-88
2022/11/29 07:16:29;;;;;;;26.33;11.65;;;7.00;99.90;;;;;;6306581;22;20022;-86
2022/11/29 07:19:32;;;;;;;33.05;12.98;;;7.00;99.90;;;;;;6277561;22;20011;-87
2022/11/29 07:22:31;;;;;;;24.70;10.75;;;6.90;99.90;;;;;;6271788;22;20029;-86
2022/11/29 07:25:12;;;;;;;30.55;12.27;;;7.00;99.90;;;;;;6280423;22;20016;-87
2022/11/29 07:28:12;;;;;;;29.77;12.27;;;7.00;99.90;;;;;;6254943;22;20342;-89
2022/11/29 07:30:49;;;;;;;37.33;14.65;;;7.00;99.90;;;;;;6278067;22;20355;-86
2022/11/29 07:33:28;;;;;;;35.63;13.60;;;7.00;99.90;;;;;;6306325;22;20086;-87
2022/11/29 07:36:00;;;;;;;37.10;13.88;;;7.00;99.90;;;;;;6278257;22;20016;-87
2022/11/29 07:38:53;;;;;;;29.40;13.27;;;7.00;99.90;;;;;;6304683;22;20140;-89
2022/11/29 07:41:26;;;;;;;29.77;14.20;;;7.00;99.90;;;;;;6305923;22;20015;-86
2022/11/29 07:43:58;;;;;;;33.25;14.80;;;7.00;99.90;;;;;;6275416;22;20405;-84
2022/11/29 07:46:24;;;;;;;34.40;14.75;;;7.00;99.90;;;;;;6276403;22;20019;-86
2022/11/29 07:48:50;;;;;;;30.35;13.88;;;7.00;99.90;;;;;;6277112;22;20019;-85
2022/11/29 07:51:16;;;;;;;30.02;12.27;;;7.00;99.90;;;;;;6276895;22;20007;-86
2022/11/29 07:53:43;;;;;;;31.67;14.70;;;7.60;99.90;;;;;;6303597;22;20449;-86
2022/11/29 07:56:09;;;;;;;33.22;14.90;;;7.00;99.90;;;;;;6252404;22;20023;-86
2022/11/29 07:58:35;;;;;;;36.90;15.48;;;7.00;99.90;;;;;;6304565;22;20008;-86
2022/11/29 08:01:01;;;;;;;33.05;13.93;;;7.00;99.90;;;;;;6276464;22;20015;-86
2022/11/29 08:03:27;;;;;;;33.85;13.68;;;7.00;99.90;;;;;;6275467;22;20080;-85
2022/11/29 08:05:54;;;;;;;29.23;12.60;;;7.00;99.90;;;;;;6250854;22;20019;-84
2022/11/29 08:08:19;;;;;;;39.22;15.10;;;7.10;99.90;;;;;;6302904;22;20094;-85
2022/11/29 08:10:45;;;;;;;30.25;13.88;;;7.10;99.90;;;;;;6275977;22;20034;-84
2022/11/29 08:13:11;;;;;;;36.45;15.80;;;7.10;99.90;;;;;;6303032;22;20388;-87
2022/11/29 08:15:44;;;;;;;36.80;15.13;;;7.10;99.90;;;;;;6305407;22;20010;-90
2022/11/29 08:18:09;;;;;;;30.80;15.30;;;7.10;99.90;;;;;;6251529;22;20011;-85
2022/11/29 08:20:35;;;;;;;43.22;16.17;;;7.10;99.90;;;;;;6303623;22;20011;-84
2022/11/29 08:23:02;;;;;;;32.00;15.35;;;7.20;99.90;;;;;;6270225;22;20050;-85
2022/11/29 08:25:28;;;;;;;36.13;15.15;;;7.10;99.90;;;;;;6271541;22;20031;-85
2022/11/29 08:27:54;;;;;;;33.65;14.35;;;7.20;99.90;;;;;;6273066;22;20475;-85
2022/11/29 08:30:21;;;;;;;40.58;15.50;;;7.20;99.90;;;;;;6272229;22;20020;-86
2022/11/29 08:32:48;;;;;;;31.80;15.27;;;7.20;99.90;;;;;;6270090;22;20016;-87
2022/11/29 08:35:15;;;;;;;36.90;14.52;;;7.20;99.90;;;;;;6271193;22;20461;-86
2022/11/29 08:37:41;;;;;;;31.48;14.45;;;7.20;99.90;;;;;;6270056;22;20018;-86
2022/11/29 08:40:07;;;;;;;31.17;14.10;;;7.40;99.90;;;;;;6272016;22;20008;-85
2022/11/29 08:42:33;;;;;;;32.50;14.35;;;7.30;99.90;;;;;;6271097;22;20057;-86
2022/11/29 08:44:58;;;;;;;27.10;13.70;;;7.30;99.90;;;;;;6270460;22;20758;-85
2022/11/29 08:47:36;;;;;;;32.30;14.35;;;7.30;99.90;;;;;;6272822;22;20012;-87
2022/11/29 08:50:13;;;;;;;28.48;13.65;;;7.30;99.90;;;;;;6272478;22;20016;-86
2022/11/29 08:55:30;;;;;;;22.25;11.88;;;7.30;99.90;;;;;;6273328;22;20015;-87
2022/11/29 08:58:02;;;;;;;26.77;12.85;;;7.40;99.90;;;;;;6271702;22;20082;-87
2022/11/29 09:00:27;;;;;;;25.83;12.90;;;7.40;99.90;;;;;;6273490;22;20020;-86
2022/11/29 09:02:53;;;;;;;29.90;12.82;;;7.40;99.90;;;;;;6273315;22;20031;-86
2022/11/29 09:05:19;;;;;;;28.10;11.68;;;8.00;99.90;;;;;;6270259;22;20016;-86
2022/11/29 09:07:45;;;;;;;23.70;11.85;;;7.50;99.90;;;;;;6271719;22;20016;-86
2022/11/29 09:10:11;;;;;;;26.92;11.90;;;7.50;99.90;;;;;;6271031;22;20022;-86
2022/11/29 09:12:38;;;;;;;27.35;11.80;;;7.50;99.90;;;;;;6271711;22;20051;-87
2022/11/29 09:15:06;;;;;;;27.98;10.50;;;7.50;99.90;;;;;;6272789;22;20012;-86
2022/11/29 09:17:32;;;;;;;23.05;11.18;;;7.50;99.90;;;;;;6271662;22;20015;-87
2022/11/29 09:19:58;;;;;;;28.02;11.32;;;7.50;99.90;;;;;;6273818;22;20023;-86
2022/11/29 09:22:24;;;;;;;28.20;11.90;;;7.50;99.90;;;;;;6293755;22;20015;-87
2022/11/29 09:24:49;;;;;;;21.95;10.73;;;7.50;99.90;;;;;;6304118;22;20082;-85
2022/11/29 09:27:15;;;;;;;27.33;12.02;;;7.60;99.90;;;;;;6277106;22;20011;-86
2022/11/29 09:29:41;;;;;;;23.67;10.32;;;7.60;99.90;;;;;;6304272;22;20009;-86
2022/11/29 09:32:06;;;;;;;24.05;10.93;;;7.60;99.90;;;;;;6276785;22;20019;-86
2022/11/29 09:34:32;;;;;;;26.05;10.93;;;7.70;99.90;;;;;;6276335;22;20430;-86
2022/11/29 09:36:58;;;;;;;29.65;11.10;;;7.70;99.90;;;;;;6275693;22;20426;-86
2022/11/29 09:39:23;;;;;;;27.75;11.05;;;7.70;99.90;;;;;;6275571;22;20022;-86
2022/11/29 09:42:11;;;;;;;28.15;10.43;;;7.60;99.90;;;;;;6278701;22;20098;-86
2022/11/29 09:44:58;;;;;;;25.63;10.98;;;7.80;99.90;;;;;;6305478;22;20402;-86
2022/11/29 09:47:23;;;;;;;22.30;10.23;;;7.80;99.90;;;;;;6279051;22;20350;-86
2022/11/29 09:49:50;;;;;;;21.48;10.43;;;7.90;99.90;;;;;;6278286;22;20025;-85
2022/11/29 09:52:36;;;;;;;25.80;10.30;;;8.10;99.90;;;;;;6304490;22;20015;-86
2022/11/29 09:55:30;;;;;;;22.15;9.73;;;8.00;99.90;;;;;;6230824;22;20072;-85
2022/11/29 09:57:58;;;;;;;18.60;9.18;;;8.10;99.90;;;;;;6277208;22;20011;-87
2022/11/29 10:00:25;;;;;;;19.45;8.73;;;8.10;99.90;;;;;;6252497;22;20051;-86
2022/11/29 10:03:21;;;;;;;24.63;9.18;;;8.20;99.90;;;;;;6304597;22;20065;-86
2022/11/29 10:05:52;;;;;;;21.38;8.82;;;8.30;99.90;;;;;;6277965;22;20011;-86
2022/11/29 10:08:25;;;;;;;20.13;8.93;;;8.30;99.90;;;;;;6252016;22;20042;-86
2022/11/29 10:10:57;;;;;;;24.42;9.10;;;8.30;99.90;;;;;;6251366;22;20079;-84
2022/11/29 10:13:34;;;;;;;22.95;8.35;;;8.40;99.90;;;;;;6250852;22;20023;-85
2022/11/29 10:16:11;;;;;;;20.60;8.82;;;8.40;99.90;;;;;;6277263;22;20015;-85
2022/11/29 10:18:47;;;;;;;19.35;8.50;;;8.40;99.90;;;;;;6250132;22;20065;-84
2022/11/29 10:21:28;;;;;;;19.13;8.30;;;8.50;99.90;;;;;;6276660;22;20026;-85
2022/11/29 10:23:58;;;;;;;24.00;8.20;;;8.50;99.90;;;;;;6276530;22;20018;-85
2022/11/29 10:26:24;;;;;;;19.58;8.02;;;8.50;99.90;;;;;;6276459;22;20361;-84
2022/11/29 10:28:50;;;;;;;23.63;9.23;;;8.50;99.90;;;;;;6277166;22;20019;-85
2022/11/29 10:31:30;;;;;;;26.00;10.52;;;8.50;99.90;;;;;;6303724;22;20007;-85
2022/11/29 10:34:00;;;;;;;24.92;9.48;;;8.60;99.90;;;;;;6276390;22;20007;-86
2022/11/29 10:36:40;;;;;;;20.52;9.50;;;8.60;99.90;;;;;;6304853;22;20015;-86
2022/11/29 10:39:36;;;;;;;22.75;8.05;;;8.60;99.90;;;;;;6304747;22;20060;-85
2022/11/29 10:42:05;;;;;;;22.40;8.50;;;8.60;99.90;;;;;;6273906;22;20015;-86
2022/11/29 10:44:32;;;;;;;21.52;9.48;;;8.60;99.90;;;;;;6276435;22;20054;-86
2022/11/29 10:47:02;;;;;;;24.98;9.60;;;8.70;99.90;;;;;;6276296;22;20011;-85
2022/11/29 10:49:31;;;;;;;27.10;9.80;;;8.70;99.90;;;;;;6250499;22;20023;-85
2022/11/29 10:51:57;;;;;;;22.00;9.65;;;8.70;99.90;;;;;;6274477;22;20473;-85
2022/11/29 10:54:42;;;;;;;21.42;8.93;;;8.70;99.90;;;;;;6276231;22;20011;-86
2022/11/29 10:57:21;;;;;;;23.27;9.23;;;8.70;99.90;;;;;;6303203;22;20015;-85
2022/11/29 11:00:05;;;;;;;19.65;8.60;;;8.70;99.90;;;;;;6274377;22;20019;-86
2022/11/29 11:02:32;;;;;;;;;;;8.80;99.90;;;;;;6251018;22;20045;-85
2022/11/29 11:05:01;;;;;;;20.60;9.07;;;8.70;99.90;;;;;;6303621;22;19937;-85
2022/11/29 11:07:34;;;;;;;23.25;9.15;;;8.80;99.90;;;;;;6275755;22;20089;-85
2022/11/29 11:10:02;;;;;;;22.17;9.13;;;8.80;99.90;;;;;;6276171;22;20015;-86
2022/11/29 11:12:33;;;;;;;22.65;9.07;;;8.80;99.90;;;;;;6276972;22;20015;-85
2022/11/29 11:15:27;;;;;;;28.67;9.73;;;9.20;99.90;;;;;;6250508;22;20015;-85
2022/11/29 11:18:03;;;;;;;23.88;9.93;;;8.80;99.90;;;;;;6302796;22;20007;-86
2022/11/29 11:20:36;;;;;;;22.70;10.00;;;8.90;99.90;;;;;;6251637;22;20438;-86
2022/11/29 11:23:05;;;;;;;35.58;11.80;;;8.90;99.90;;;;;;6270564;22;20074;-85
2022/11/29 11:25:35;;;;;;;27.95;10.38;;;9.00;99.90;;;;;;6270517;22;20031;-84
2022/11/29 11:28:12;;;;;;;22.10;9.93;;;9.00;99.90;;;;;;6273902;22;20017;-86
2022/11/29 11:30:38;;;;;;;26.00;9.48;;;9.10;99.90;;;;;;6271858;22;20054;-85
2022/11/29 11:33:30;;;;;;;24.80;10.00;;;9.10;99.90;;;;;;6271229;22;20607;-86
2022/11/29 11:36:24;;;;;;;27.95;10.98;;;9.20;99.90;;;;;;6273203;22;20015;-86
2022/11/29 11:38:55;;;;;;;18.42;9.48;;;9.20;99.90;;;;;;6269205;22;20086;-86
2022/11/29 11:44:39;;;;;;;23.15;11.15;;;9.70;99.90;;;;;;6273408;22;20022;-86
2022/11/29 11:47:12;;;;;;;19.20;10.98;;;9.40;99.90;;;;;;6271679;22;20058;-86
2022/11/29 11:50:03;;;;;;;22.05;11.02;;;9.50;99.90;;;;;;6270366;22;20023;-85
2022/11/29 11:52:32;;;;;;;19.38;9.73;;;9.50;99.90;;;;;;6268609;22;20454;-86
2022/11/29 11:55:02;;;;;;;22.67;10.05;;;9.50;99.90;;;;;;6271654;22;20020;-84
2022/11/29 11:57:28;;;;;;;26.10;11.55;;;9.60;99.90;;;;;;6273618;22;20038;-84
2022/11/29 11:59:56;;;;;;;20.88;10.82;;;9.60;99.90;;;;;;6269564;22;20354;-87
2022/11/29 12:02:38;;;;;;;23.02;11.50;;;9.60;99.90;;;;;;6272539;22;20045;-85
2022/11/29 12:05:18;;;;;;;19.23;10.63;;;9.60;99.90;;;;;;6271891;22;20801;-85
2022/11/29 12:07:52;;;;;;;18.52;10.10;;;9.60;99.90;;;;;;6271893;22;20015;-84
2022/11/29 12:10:23;;;;;;;19.70;9.55;;;9.60;99.90;;;;;;6269566;22;20024;-86
2022/11/29 12:12:50;;;;;;;22.05;11.23;;;9.60;99.90;;;;;;6272690;22;20011;-84
2022/11/29 12:15:29;;;;;;;18.70;10.30;;;9.50;99.90;;;;;;6269897;22;20016;-85
2022/11/29 12:17:59;;;;;;;21.77;10.60;;;9.50;99.90;;;;;;6269668;22;20022;-84
2022/11/29 12:20:38;;;;;;;16.75;9.85;;;9.50;99.90;;;;;;6271756;22;20476;-84
2022/11/29 12:23:13;;;;;;;20.48;9.10;;;9.40;99.90;;;;;;6299263;22;20061;-84
2022/11/29 12:25:51;;;;;;;15.52;9.27;;;9.40;99.90;;;;;;6275805;22;20558;-85
2022/11/29 12:28:19;;;;;;;14.48;8.85;;;9.40;99.90;;;;;;6302909;22;20018;-84
2022/11/29 12:31:17;;;;;;;15.43;8.90;;;9.40;99.90;;;;;;6305562;22;20012;-84
2022/11/29 12:34:28;;;;;;;15.52;8.65;;;9.80;99.90;;;;;;6304407;22;20456;-84
2022/11/29 12:37:14;;;;;;;16.58;8.60;;;9.40;99.90;;;;;;6276697;22;20011;-83
2022/11/29 12:40:12;;;;;;;16.75;9.77;;;9.40;99.90;;;;;;6277385;22;20011;-85
2022/11/29 12:43:01;;;;;;;15.30;8.63;;;9.60;99.90;;;;;;6277354;22;20015;-84
2022/11/29 12:45:54;;;;;;;13.02;8.15;;;9.30;99.90;;;;;;6302473;22;20026;-84
2022/11/29 12:48:40;;;;;;;13.55;7.88;;;9.30;99.90;;;;;;6302099;22;20095;-84
2022/11/29 12:51:42;;;;;;;13.00;7.65;;;9.20;99.90;;;;;;6301530;22;20061;-84
2022/11/29 12:54:20;;;;;;;13.15;8.10;;;9.20;99.90;;;;;;6274736;22;20022;-85
2022/11/29 12:57:26;;;;;;;14.13;8.05;;;9.20;99.90;;;;;;6302437;22;20015;-83
2022/11/29 13:00:03;;;;;;;13.80;8.60;;;9.20;99.90;;;;;;6230260;22;20019;-86
2022/11/29 13:02:44;;;;;;;13.05;8.50;;;9.20;99.90;;;;;;6303739;22;20015;-85
2022/11/29 13:05:22;;;;;;;15.85;9.52;;;9.10;99.90;;;;;;6274468;22;20019;-86
2022/11/29 13:07:57;;;;;;;15.65;9.68;;;9.10;99.90;;;;;;6275475;22;20015;-84
2022/11/29 13:10:53;;;;;;;18.20;8.70;;;9.10;99.90;;;;;;6275921;22;20015;-84
2022/11/29 13:13:37;;;;;;;17.00;8.52;;;9.00;99.90;;;;;;6244504;22;20020;-86
2022/11/29 13:16:44;;;;;;;15.40;9.43;;;9.00;99.90;;;;;;6277382;22;20430;-85
2022/11/29 13:19:31;;;;;;;12.88;8.55;;;9.00;99.90;;;;;;6271614;22;20020;-84
2022/11/29 13:22:28;;;;;;;14.57;9.10;;;9.00;99.90;;;;;;6252963;22;20027;-86
2022/11/29 13:25:05;;;;;;;13.48;9.10;;;8.90;99.90;;;;;;6278482;22;20026;-86
2022/11/29 13:27:39;;;;;;;17.60;9.30;;;8.90;99.90;;;;;;6278427;22;20019;-86
2022/11/29 13:30:06;;;;;;;13.38;8.45;;;8.90;99.90;;;;;;6279266;22;20022;-85
2022/11/29 13:32:41;;;;;;;14.38;8.30;;;8.90;99.90;;;;;;6278738;22;20037;-86
2022/11/29 13:35:45;;;;;;;14.40;8.90;;;8.80;99.90;;;;;;6278553;22;20015;-86